Terminal Aerodrome Forecast
Issued by NWS

Home | Current Version | Previous Version | Text Only | Print | Product List | Glossary On
Versions: 1 2 3 4 5 6 7 8 9 10 11 12 13
210
FTUS43 KSGF 220520
TAFJLN
TAF
KJLN 220520Z 2206/2306 05006KT P6SM -RA OVC025
     FM221000 04007KT 4SM -RA BR OVC007
     FM221800 03011KT 4SM -SHRA OVC008
     FM230100 03010KT P6SM OVC010=

USA.gov is the U.S. government's official web portal to all federal, state and local government web resources and services.